sensor_id;sensor_type;location;lat;lon;timestamp;temperature;humidity
2282;DHT22;27486;48.77806476;9.16920056;2022-08-30T00:00:56;20.50;85.80
2282;DHT22;27486;48.77806476;9.16920056;2022-08-30T00:03:46;20.50;85.90
2282;DHT22;27486;48.77806476;9.16920056;2022-08-30T00:06:30;20.50;86.30
2282;DHT22;27486;48.77806476;9.16920056;2022-08-30T00:09:14;20.40;86.50
2282;DHT22;27486;48.77806476;9.16920056;2022-08-30T00:11:59;20.40;87.00
2282;DHT22;27486;48.77806476;9.16920056;2022-08-30T00:14:42;20.40;87.10
2282;DHT22;27486;48.77806476;9.16920056;2022-08-30T00:17:27;20.40;87.50
2282;DHT22;27486;48.77806476;9.16920056;2022-08-30T00:20:13;20.30;87.80
2282;DHT22;27486;48.77806476;9.16920056;2022-08-30T00:22:58;20.20;88.40
2282;DHT22;27486;48.77806476;9.16920056;2022-08-30T00:25:42;20.20;89.00
2282;DHT22;27486;48.77806476;9.16920056;2022-08-30T00:28:27;20.20;89.10
2282;DHT22;27486;48.77806476;9.16920056;2022-08-30T00:31:11;20.20;89.20
2282;DHT22;27486;48.77806476;9.16920056;2022-08-30T00:33:55;20.10;89.50
2282;DHT22;27486;48.77806476;9.16920056;2022-08-30T00:36:39;20.10;90.00
2282;DHT22;27486;48.77806476;9.16920056;2022-08-30T00:39:24;20.00;90.30
2282;DHT22;27486;48.77806476;9.16920056;2022-08-30T00:42:09;20.00;90.40
2282;DHT22;27486;48.77806476;9.16920056;2022-08-30T00:44:54;20.00;90.40
2282;DHT22;27486;48.77806476;9.16920056;2022-08-30T00:47:38;20.00;90.60
2282;DHT22;27486;48.77806476;9.16920056;2022-08-30T00:50:27;19.90;90.80
2282;DHT22;27486;48.77806476;9.16920056;2022-08-30T00:53:15;19.90;90.90
2282;DHT22;27486;48.77806476;9.16920056;2022-08-30T00:56:00;19.90;91.00
2282;DHT22;27486;48.77806476;9.16920056;2022-08-30T00:58:49;19.90;91.00
2282;DHT22;27486;48.77806476;9.16920056;2022-08-30T01:01:35;19.80;91.20
2282;DHT22;27486;48.77806476;9.16920056;2022-08-30T01:04:23;19.80;91.20
2282;DHT22;27486;48.77806476;9.16920056;2022-08-30T01:07:08;19.90;91.10
2282;DHT22;27486;48.77806476;9.16920056;2022-08-30T01:09:52;19.80;91.00
2282;DHT22;27486;48.77806476;9.16920056;2022-08-30T01:12:39;19.80;91.10
2282;DHT22;27486;48.77806476;9.16920056;2022-08-30T01:15:23;19.70;91.20
2282;DHT22;27486;48.77806476;9.16920056;2022-08-30T01:18:08;19.70;91.20
2282;DHT22;27486;48.77806476;9.16920056;2022-08-30T01:23:52;19.80;91.10
2282;DHT22;27486;48.77806476;9.16920056;2022-08-30T01:26:38;19.80;91.10
2282;DHT22;27486;48.77806476;9.16920056;2022-08-30T01:29:23;19.80;91.40
2282;DHT22;27486;48.77806476;9.16920056;2022-08-30T01:32:15;19.70;91.40
2282;DHT22;27486;48.77806476;9.16920056;2022-08-30T01:35:01;19.70;91.50
2282;DHT22;27486;48.77806476;9.16920056;2022-08-30T01:37:45;19.70;91.60
2282;DHT22;27486;48.77806476;9.16920056;2022-08-30T01:40:29;19.60;91.80
2282;DHT22;27486;48.77806476;9.16920056;2022-08-30T01:43:14;19.60;91.80
2282;DHT22;27486;48.77806476;9.16920056;2022-08-30T01:46:00;19.50;92.00
2282;DHT22;27486;48.77806476;9.16920056;2022-08-30T01:48:46;19.50;92.10
2282;DHT22;27486;48.77806476;9.16920056;2022-08-30T01:51:30;19.50;92.10
2282;DHT22;27486;48.77806476;9.16920056;2022-08-30T01:54:14;19.40;92.10
2282;DHT22;27486;48.77806476;9.16920056;2022-08-30T01:56:58;19.40;92.40
2282;DHT22;27486;48.77806476;9.16920056;2022-08-30T01:59:43;19.40;92.50
2282;DHT22;27486;48.77806476;9.16920056;2022-08-30T02:02:30;19.40;92.50
2282;DHT22;27486;48.77806476;9.16920056;2022-08-30T02:05:14;19.40;92.40
2282;DHT22;27486;48.77806476;9.16920056;2022-08-30T02:07:59;19.40;92.40
2282;DHT22;27486;48.77806476;9.16920056;2022-08-30T02:10:43;19.40;92.40
2282;DHT22;27486;48.77806476;9.16920056;2022-08-30T02:13:28;19.40;92.40
2282;DHT22;27486;48.77806476;9.16920056;2022-08-30T02:16:15;19.40;92.60
2282;DHT22;27486;48.77806476;9.16920056;2022-08-30T02:19:00;19.40;92.70
2282;DHT22;27486;48.77806476;9.16920056;2022-08-30T02:21:44;19.40;92.80
2282;DHT22;27486;48.77806476;9.16920056;2022-08-30T02:24:28;19.30;93.00
2282;DHT22;27486;48.77806476;9.16920056;2022-08-30T02:27:12;19.30;93.20
2282;DHT22;27486;48.77806476;9.16920056;2022-08-30T02:29:56;19.30;93.20
2282;DHT22;27486;48.77806476;9.16920056;2022-08-30T02:32:40;19.20;93.50
2282;DHT22;27486;48.77806476;9.16920056;2022-08-30T02:35:25;19.20;93.40
2282;DHT22;27486;48.77806476;9.16920056;2022-08-30T02:38:10;19.20;93.40
2282;DHT22;27486;48.77806476;9.16920056;2022-08-30T02:40:54;19.10;93.50
2282;DHT22;27486;48.77806476;9.16920056;2022-08-30T02:43:38;19.10;93.60
2282;DHT22;27486;48.77806476;9.16920056;2022-08-30T02:46:22;19.10;93.60
2282;DHT22;27486;48.77806476;9.16920056;2022-08-30T02:49:06;19.10;93.70
2282;DHT22;27486;48.77806476;9.16920056;2022-08-30T02:51:51;19.00;93.80
2282;DHT22;27486;48.77806476;9.16920056;2022-08-30T02:54:35;19.00;93.90
2282;DHT22;27486;48.77806476;9.16920056;2022-08-30T02:57:19;19.00;94.00
2282;DHT22;27486;48.77806476;9.16920056;2022-08-30T03:00:08;19.00;94.00
2282;DHT22;27486;48.77806476;9.16920056;2022-08-30T03:02:52;19.00;94.10
2282;DHT22;27486;48.77806476;9.16920056;2022-08-30T03:05:36;19.10;93.80
2282;DHT22;27486;48.77806476;9.16920056;2022-08-30T03:08:22;19.10;93.80
2282;DHT22;27486;48.77806476;9.16920056;2022-08-30T03:11:07;19.10;93.70
2282;DHT22;27486;48.77806476;9.16920056;2022-08-30T03:13:51;19.10;93.90
2282;DHT22;27486;48.77806476;9.16920056;2022-08-30T03:16:35;19.10;94.10
2282;DHT22;27486;48.77806476;9.16920056;2022-08-30T03:19:19;19.00;94.40
2282;DHT22;27486;48.77806476;9.16920056;2022-08-30T03:22:05;19.00;94.50
2282;DHT22;27486;48.77806476;9.16920056;2022-08-30T03:24:50;18.90;94.60
2282;DHT22;27486;48.77806476;9.16920056;2022-08-30T03:27:34;18.90;94.50
2282;DHT22;27486;48.77806476;9.16920056;2022-08-30T03:30:19;18.90;94.70
2282;DHT22;27486;48.77806476;9.16920056;2022-08-30T03:33:04;18.90;94.50
2282;DHT22;27486;48.77806476;9.16920056;2022-08-30T03:35:48;18.90;94.60
2282;DHT22;27486;48.77806476;9.16920056;2022-08-30T03:38:33;18.80;94.80
2282;DHT22;27486;48.77806476;9.16920056;2022-08-30T03:41:17;18.80;94.80
2282;DHT22;27486;48.77806476;9.16920056;2022-08-30T03:44:01;18.80;94.80
2282;DHT22;27486;48.77806476;9.16920056;2022-08-30T03:46:46;18.80;94.90
2282;DHT22;27486;48.77806476;9.16920056;2022-08-30T03:49:30;18.70;95.10
2282;DHT22;27486;48.77806476;9.16920056;2022-08-30T03:52:14;18.70;95.40
2282;DHT22;27486;48.77806476;9.16920056;2022-08-30T03:54:58;18.80;95.30
2282;DHT22;27486;48.77806476;9.16920056;2022-08-30T03:57:44;18.70;95.20
2282;DHT22;27486;48.77806476;9.16920056;2022-08-30T04:00:28;18.60;95.50
2282;DHT22;27486;48.77806476;9.16920056;2022-08-30T04:03:12;18.60;95.50
2282;DHT22;27486;48.77806476;9.16920056;2022-08-30T04:05:57;18.60;95.60
2282;DHT22;27486;48.77806476;9.16920056;2022-08-30T04:08:41;18.60;95.50
2282;DHT22;27486;48.77806476;9.16920056;2022-08-30T04:11:27;18.60;95.50
2282;DHT22;27486;48.77806476;9.16920056;2022-08-30T04:14:11;18.50;95.50
2282;DHT22;27486;48.77806476;9.16920056;2022-08-30T04:16:55;18.50;96.00
2282;DHT22;27486;48.77806476;9.16920056;2022-08-30T04:19:40;18.50;95.90
2282;DHT22;27486;48.77806476;9.16920056;2022-08-30T04:22:24;18.50;95.80
2282;DHT22;27486;48.77806476;9.16920056;2022-08-30T04:25:09;18.50;95.80
2282;DHT22;27486;48.77806476;9.16920056;2022-08-30T04:27:53;18.40;95.90
2282;DHT22;27486;48.77806476;9.16920056;2022-08-30T04:30:43;18.40;96.10
2282;DHT22;27486;48.77806476;9.16920056;2022-08-30T04:33:27;18.40;96.20
2282;DHT22;27486;48.77806476;9.16920056;2022-08-30T04:36:12;18.40;96.10
2282;DHT22;27486;48.77806476;9.16920056;2022-08-30T04:38:56;18.40;96.10
2282;DHT22;27486;48.77806476;9.16920056;2022-08-30T04:41:40;18.40;96.30
2282;DHT22;27486;48.77806476;9.16920056;2022-08-30T04:44:24;18.40;96.50
2282;DHT22;27486;48.77806476;9.16920056;2022-08-30T04:47:10;18.40;96.70
2282;DHT22;27486;48.77806476;9.16920056;2022-08-30T04:49:54;18.40;96.70
2282;DHT22;27486;48.77806476;9.16920056;2022-08-30T04:52:38;18.40;96.80
2282;DHT22;27486;48.77806476;9.16920056;2022-08-30T04:55:23;18.40;97.00
2282;DHT22;27486;48.77806476;9.16920056;2022-08-30T04:58:09;18.40;96.90
2282;DHT22;27486;48.77806476;9.16920056;2022-08-30T05:00:53;18.40;96.90
2282;DHT22;27486;48.77806476;9.16920056;2022-08-30T05:03:37;18.50;96.90
2282;DHT22;27486;48.77806476;9.16920056;2022-08-30T05:06:23;18.40;96.90
2282;DHT22;27486;48.77806476;9.16920056;2022-08-30T05:09:08;18.50;96.90
2282;DHT22;27486;48.77806476;9.16920056;2022-08-30T05:11:52;18.60;96.80
2282;DHT22;27486;48.77806476;9.16920056;2022-08-30T05:14:36;18.70;96.40
2282;DHT22;27486;48.77806476;9.16920056;2022-08-30T05:17:20;18.90;96.00
2282;DHT22;27486;48.77806476;9.16920056;2022-08-30T05:20:06;19.00;95.90
2282;DHT22;27486;48.77806476;9.16920056;2022-08-30T05:22:51;19.10;95.80
2282;DHT22;27486;48.77806476;9.16920056;2022-08-30T05:25:40;19.20;95.40
2282;DHT22;27486;48.77806476;9.16920056;2022-08-30T05:28:24;19.30;95.20
2282;DHT22;27486;48.77806476;9.16920056;2022-08-30T05:31:23;19.50;94.90
2282;DHT22;27486;48.77806476;9.16920056;2022-08-30T05:34:07;19.70;94.60
2282;DHT22;27486;48.77806476;9.16920056;2022-08-30T05:36:51;19.90;93.90
2282;DHT22;27486;48.77806476;9.16920056;2022-08-30T05:39:36;20.00;93.50
2282;DHT22;27486;48.77806476;9.16920056;2022-08-30T05:42:20;20.10;93.10
2282;DHT22;27486;48.77806476;9.16920056;2022-08-30T05:45:04;20.10;93.10
2282;DHT22;27486;48.77806476;9.16920056;2022-08-30T05:47:49;20.00;92.90
2282;DHT22;27486;48.77806476;9.16920056;2022-08-30T05:50:33;20.10;92.90
2282;DHT22;27486;48.77806476;9.16920056;2022-08-30T05:53:17;20.00;92.80
2282;DHT22;27486;48.77806476;9.16920056;2022-08-30T05:56:03;20.00;92.70
2282;DHT22;27486;48.77806476;9.16920056;2022-08-30T05:58:48;20.10;92.60
2282;DHT22;27486;48.77806476;9.16920056;2022-08-30T06:01:34;20.10;92.80
2282;DHT22;27486;48.77806476;9.16920056;2022-08-30T06:04:19;20.00;92.80
2282;DHT22;27486;48.77806476;9.16920056;2022-08-30T06:07:03;20.10;92.60
2282;DHT22;27486;48.77806476;9.16920056;2022-08-30T06:09:48;20.10;92.60
2282;DHT22;27486;48.77806476;9.16920056;2022-08-30T06:12:32;20.20;92.60
2282;DHT22;27486;48.77806476;9.16920056;2022-08-30T06:15:16;20.40;92.80
2282;DHT22;27486;48.77806476;9.16920056;2022-08-30T06:18:00;20.50;92.70
2282;DHT22;27486;48.77806476;9.16920056;2022-08-30T06:20:44;20.70;92.50
2282;DHT22;27486;48.77806476;9.16920056;2022-08-30T06:23:30;20.90;92.60
2282;DHT22;27486;48.77806476;9.16920056;2022-08-30T06:26:14;21.10;92.20
2282;DHT22;27486;48.77806476;9.16920056;2022-08-30T06:28:58;21.30;91.80
2282;DHT22;27486;48.77806476;9.16920056;2022-08-30T06:31:42;21.60;91.00
2282;DHT22;27486;48.77806476;9.16920056;2022-08-30T06:34:27;21.90;90.50
2282;DHT22;27486;48.77806476;9.16920056;2022-08-30T06:37:10;22.20;90.00
2282;DHT22;27486;48.77806476;9.16920056;2022-08-30T06:39:56;22.50;88.10
2282;DHT22;27486;48.77806476;9.16920056;2022-08-30T06:42:40;22.60;85.60
2282;DHT22;27486;48.77806476;9.16920056;2022-08-30T06:45:24;22.70;85.40
2282;DHT22;27486;48.77806476;9.16920056;2022-08-30T06:48:07;22.60;85.10
2282;DHT22;27486;48.77806476;9.16920056;2022-08-30T06:50:53;22.60;84.80
2282;DHT22;27486;48.77806476;9.16920056;2022-08-30T06:53:37;22.50;85.10
2282;DHT22;27486;48.77806476;9.16920056;2022-08-30T06:56:22;22.60;84.50
2282;DHT22;27486;48.77806476;9.16920056;2022-08-30T06:59:06;22.60;84.10
2282;DHT22;27486;48.77806476;9.16920056;2022-08-30T07:01:50;22.60;84.50
2282;DHT22;27486;48.77806476;9.16920056;2022-08-30T07:04:34;22.50;84.10
2282;DHT22;27486;48.77806476;9.16920056;2022-08-30T07:07:19;22.50;84.90
2282;DHT22;27486;48.77806476;9.16920056;2022-08-30T07:10:04;22.40;85.20
2282;DHT22;27486;48.77806476;9.16920056;2022-08-30T07:12:49;22.50;84.80
2282;DHT22;27486;48.77806476;9.16920056;2022-08-30T07:15:33;22.60;84.80
2282;DHT22;27486;48.77806476;9.16920056;2022-08-30T07:18:17;22.60;84.20
2282;DHT22;27486;48.77806476;9.16920056;2022-08-30T07:21:32;22.60;83.90
2282;DHT22;27486;48.77806476;9.16920056;2022-08-30T07:24:18;22.70;84.30
2282;DHT22;27486;48.77806476;9.16920056;2022-08-30T07:27:02;22.80;83.00
2282;DHT22;27486;48.77806476;9.16920056;2022-08-30T07:29:48;22.90;82.70
2282;DHT22;27486;48.77806476;9.16920056;2022-08-30T07:32:32;22.90;82.20
2282;DHT22;27486;48.77806476;9.16920056;2022-08-30T07:35:16;23.20;82.60
2282;DHT22;27486;48.77806476;9.16920056;2022-08-30T07:38:00;23.50;80.90
2282;DHT22;27486;48.77806476;9.16920056;2022-08-30T07:40:44;23.90;79.00
2282;DHT22;27486;48.77806476;9.16920056;2022-08-30T07:43:30;24.40;77.60
2282;DHT22;27486;48.77806476;9.16920056;2022-08-30T07:46:14;24.90;75.80
2282;DHT22;27486;48.77806476;9.16920056;2022-08-30T07:48:59;25.20;73.60
2282;DHT22;27486;48.77806476;9.16920056;2022-08-30T07:51:44;25.50;72.10
2282;DHT22;27486;48.77806476;9.16920056;2022-08-30T07:54:28;25.70;69.80
2282;DHT22;27486;48.77806476;9.16920056;2022-08-30T07:57:12;25.90;69.30
2282;DHT22;27486;48.77806476;9.16920056;2022-08-30T07:59:56;26.00;69.00
2282;DHT22;27486;48.77806476;9.16920056;2022-08-30T08:02:40;26.10;68.10
2282;DHT22;27486;48.77806476;9.16920056;2022-08-30T08:05:25;26.10;67.50
2282;DHT22;27486;48.77806476;9.16920056;2022-08-30T08:08:10;26.10;67.60
2282;DHT22;27486;48.77806476;9.16920056;2022-08-30T08:10:54;26.20;66.90
2282;DHT22;27486;48.77806476;9.16920056;2022-08-30T08:13:40;26.20;66.60
2282;DHT22;27486;48.77806476;9.16920056;2022-08-30T08:16:27;26.20;65.70
2282;DHT22;27486;48.77806476;9.16920056;2022-08-30T08:19:12;26.10;65.90
2282;DHT22;27486;48.77806476;9.16920056;2022-08-30T08:21:56;26.20;65.30
2282;DHT22;27486;48.77806476;9.16920056;2022-08-30T08:24:43;26.20;65.00
2282;DHT22;27486;48.77806476;9.16920056;2022-08-30T08:27:27;26.10;64.90
2282;DHT22;27486;48.77806476;9.16920056;2022-08-30T08:30:12;26.10;65.90
2282;DHT22;27486;48.77806476;9.16920056;2022-08-30T08:32:56;26.20;65.00
2282;DHT22;27486;48.77806476;9.16920056;2022-08-30T08:35:40;26.20;64.40
2282;DHT22;27486;48.77806476;9.16920056;2022-08-30T08:38:25;26.30;64.40
2282;DHT22;27486;48.77806476;9.16920056;2022-08-30T08:44:14;26.40;63.90
2282;DHT22;27486;48.77806476;9.16920056;2022-08-30T08:47:12;26.50;64.20
2282;DHT22;27486;48.77806476;9.16920056;2022-08-30T08:50:00;26.60;63.80
2282;DHT22;27486;48.77806476;9.16920056;2022-08-30T08:56:18;26.70;63.70
2282;DHT22;27486;48.77806476;9.16920056;2022-08-30T08:59:06;26.80;63.30
2282;DHT22;27486;48.77806476;9.16920056;2022-08-30T09:01:58;26.80;62.90
2282;DHT22;27486;48.77806476;9.16920056;2022-08-30T09:04:43;26.80;62.40
2282;DHT22;27486;48.77806476;9.16920056;2022-08-30T09:07:33;26.90;62.50
2282;DHT22;27486;48.77806476;9.16920056;2022-08-30T09:10:19;27.00;62.10
2282;DHT22;27486;48.77806476;9.16920056;2022-08-30T09:13:03;27.10;61.50
2282;DHT22;27486;48.77806476;9.16920056;2022-08-30T09:15:47;27.20;61.00
2282;DHT22;27486;48.77806476;9.16920056;2022-08-30T09:18:45;27.40;60.30
2282;DHT22;27486;48.77806476;9.16920056;2022-08-30T09:21:30;27.50;59.40
2282;DHT22;27486;48.77806476;9.16920056;2022-08-30T09:24:14;27.50;59.50
2282;DHT22;27486;48.77806476;9.16920056;2022-08-30T09:27:17;27.60;58.90
2282;DHT22;27486;48.77806476;9.16920056;2022-08-30T09:30:07;27.80;58.90
2282;DHT22;27486;48.77806476;9.16920056;2022-08-30T09:33:00;27.90;57.60
2282;DHT22;27486;48.77806476;9.16920056;2022-08-30T09:35:47;27.90;58.00
2282;DHT22;27486;48.77806476;9.16920056;2022-08-30T09:38:32;28.10;57.00
2282;DHT22;27486;48.77806476;9.16920056;2022-08-30T09:41:47;28.20;56.60
2282;DHT22;27486;48.77806476;9.16920056;2022-08-30T09:44:36;28.40;55.20
2282;DHT22;27486;48.77806476;9.16920056;2022-08-30T09:47:28;28.30;55.20
2282;DHT22;27486;48.77806476;9.16920056;2022-08-30T09:50:19;28.30;55.70
2282;DHT22;27486;48.77806476;9.16920056;2022-08-30T09:53:15;28.30;55.80
2282;DHT22;27486;48.77806476;9.16920056;2022-08-30T09:56:08;28.50;55.40
2282;DHT22;27486;48.77806476;9.16920056;2022-08-30T10:11:04;29.10;53.00
2282;DHT22;27486;48.77806476;9.16920056;2022-08-30T10:17:06;29.30;52.70
2282;DHT22;27486;48.77806476;9.16920056;2022-08-30T10:22:57;29.40;51.90
2282;DHT22;27486;48.77806476;9.16920056;2022-08-30T10:25:44;29.50;52.20
2282;DHT22;27486;48.77806476;9.16920056;2022-08-30T10:28:57;29.60;50.90
2282;DHT22;27486;48.77806476;9.16920056;2022-08-30T10:32:05;29.80;50.60
2282;DHT22;27486;48.77806476;9.16920056;2022-08-30T10:35:21;29.80;49.80
2282;DHT22;27486;48.77806476;9.16920056;2022-08-30T10:38:19;30.00;49.10
2282;DHT22;27486;48.77806476;9.16920056;2022-08-30T10:41:32;30.20;47.60
2282;DHT22;27486;48.77806476;9.16920056;2022-08-30T10:44:26;30.30;46.70
2282;DHT22;27486;48.77806476;9.16920056;2022-08-30T10:47:56;30.30;46.20
2282;DHT22;27486;48.77806476;9.16920056;2022-08-30T10:50:47;30.40;45.30
2282;DHT22;27486;48.77806476;9.16920056;2022-08-30T10:53:39;30.40;44.40
2282;DHT22;27486;48.77806476;9.16920056;2022-08-30T10:56:26;30.50;45.00
2282;DHT22;27486;48.77806476;9.16920056;2022-08-30T10:59:15;30.90;43.80
2282;DHT22;27486;48.77806476;9.16920056;2022-08-30T11:05:18;31.60;41.90
2282;DHT22;27486;48.77806476;9.16920056;2022-08-30T11:11:23;32.00;39.20
2282;DHT22;27486;48.77806476;9.16920056;2022-08-30T11:14:14;32.20;37.40
2282;DHT22;27486;48.77806476;9.16920056;2022-08-30T11:17:00;32.40;36.00
2282;DHT22;27486;48.77806476;9.16920056;2022-08-30T11:19:45;32.70;35.80
2282;DHT22;27486;48.77806476;9.16920056;2022-08-30T11:22:32;32.80;35.10
2282;DHT22;27486;48.77806476;9.16920056;2022-08-30T11:31:28;33.90;34.50
2282;DHT22;27486;48.77806476;9.16920056;2022-08-30T11:37:42;34.20;33.80
2282;DHT22;27486;48.77806476;9.16920056;2022-08-30T11:49:35;34.80;32.30
2282;DHT22;27486;48.77806476;9.16920056;2022-08-30T12:01:36;35.00;31.70
2282;DHT22;27486;48.77806476;9.16920056;2022-08-30T12:07:06;35.00;30.90
2282;DHT22;27486;48.77806476;9.16920056;2022-08-30T12:16:01;35.10;30.30
2282;DHT22;27486;48.77806476;9.16920056;2022-08-30T12:19:13;35.20;29.80
2282;DHT22;27486;48.77806476;9.16920056;2022-08-30T12:22:01;35.20;30.00
2282;DHT22;27486;48.77806476;9.16920056;2022-08-30T12:24:48;35.40;30.10
2282;DHT22;27486;48.77806476;9.16920056;2022-08-30T12:27:34;35.70;30.00
2282;DHT22;27486;48.77806476;9.16920056;2022-08-30T12:30:25;36.20;29.50
2282;DHT22;27486;48.77806476;9.16920056;2022-08-30T12:33:12;36.60;29.70
2282;DHT22;27486;48.77806476;9.16920056;2022-08-30T12:35:58;36.90;28.90
2282;DHT22;27486;48.77806476;9.16920056;2022-08-30T12:38:44;37.30;28.20
2282;DHT22;27486;48.77806476;9.16920056;2022-08-30T12:41:28;37.70;27.60
2282;DHT22;27486;48.77806476;9.16920056;2022-08-30T12:44:18;37.70;26.90
2282;DHT22;27486;48.77806476;9.16920056;2022-08-30T12:47:04;37.50;27.00
2282;DHT22;27486;48.77806476;9.16920056;2022-08-30T12:49:49;37.70;27.90
2282;DHT22;27486;48.77806476;9.16920056;2022-08-30T12:52:39;38.00;26.90
2282;DHT22;27486;48.77806476;9.16920056;2022-08-30T12:55:32;38.10;26.90
2282;DHT22;27486;48.77806476;9.16920056;2022-08-30T12:58:32;38.00;27.20
2282;DHT22;27486;48.77806476;9.16920056;2022-08-30T13:01:35;37.50;27.40
2282;DHT22;27486;48.77806476;9.16920056;2022-08-30T13:04:24;37.20;27.60
2282;DHT22;27486;48.77806476;9.16920056;2022-08-30T13:07:09;36.90;27.60
2282;DHT22;27486;48.77806476;9.16920056;2022-08-30T13:10:04;36.70;28.20
2282;DHT22;27486;48.77806476;9.16920056;2022-08-30T13:13:04;36.00;28.10
2282;DHT22;27486;48.77806476;9.16920056;2022-08-30T13:15:49;35.50;29.20
2282;DHT22;27486;48.77806476;9.16920056;2022-08-30T13:18:33;35.40;29.40
2282;DHT22;27486;48.77806476;9.16920056;2022-08-30T13:21:24;35.50;29.80
2282;DHT22;27486;48.77806476;9.16920056;2022-08-30T13:24:09;35.60;29.60
2282;DHT22;27486;48.77806476;9.16920056;2022-08-30T13:26:55;35.90;29.00
2282;DHT22;27486;48.77806476;9.16920056;2022-08-30T13:29:39;36.00;28.60
2282;DHT22;27486;48.77806476;9.16920056;2022-08-30T13:32:23;36.10;28.60
2282;DHT22;27486;48.77806476;9.16920056;2022-08-30T13:35:08;36.30;28.40
2282;DHT22;27486;48.77806476;9.16920056;2022-08-30T13:37:53;36.30;27.60
2282;DHT22;27486;48.77806476;9.16920056;2022-08-30T13:40:38;36.10;27.50
2282;DHT22;27486;48.77806476;9.16920056;2022-08-30T13:43:22;35.90;27.40
2282;DHT22;27486;48.77806476;9.16920056;2022-08-30T13:46:07;35.90;27.50
2282;DHT22;27486;48.77806476;9.16920056;2022-08-30T13:48:57;35.90;27.50
2282;DHT22;27486;48.77806476;9.16920056;2022-08-30T13:51:43;35.50;28.20
2282;DHT22;27486;48.77806476;9.16920056;2022-08-30T13:54:27;35.20;28.80
2282;DHT22;27486;48.77806476;9.16920056;2022-08-30T13:57:11;34.70;29.30
2282;DHT22;27486;48.77806476;9.16920056;2022-08-30T13:59:55;34.60;29.60
2282;DHT22;27486;48.77806476;9.16920056;2022-08-30T14:02:39;34.50;29.90
2282;DHT22;27486;48.77806476;9.16920056;2022-08-30T14:05:28;34.50;29.60
2282;DHT22;27486;48.77806476;9.16920056;2022-08-30T14:08:16;34.20;29.50
2282;DHT22;27486;48.77806476;9.16920056;2022-08-30T14:11:00;34.10;29.90
2282;DHT22;27486;48.77806476;9.16920056;2022-08-30T14:13:45;34.20;29.50
2282;DHT22;27486;48.77806476;9.16920056;2022-08-30T14:16:30;34.30;29.30
2282;DHT22;27486;48.77806476;9.16920056;2022-08-30T14:19:16;34.40;29.20
2282;DHT22;27486;48.77806476;9.16920056;2022-08-30T14:22:01;34.30;28.90
2282;DHT22;27486;48.77806476;9.16920056;2022-08-30T14:24:45;34.40;29.10
2282;DHT22;27486;48.77806476;9.16920056;2022-08-30T14:27:29;35.00;29.00
2282;DHT22;27486;48.77806476;9.16920056;2022-08-30T14:30:13;35.70;28.10
2282;DHT22;27486;48.77806476;9.16920056;2022-08-30T14:32:57;36.70;27.30
2282;DHT22;27486;48.77806476;9.16920056;2022-08-30T14:35:42;37.60;26.10
2282;DHT22;27486;48.77806476;9.16920056;2022-08-30T14:38:26;38.70;25.40
2282;DHT22;27486;48.77806476;9.16920056;2022-08-30T14:41:10;40.30;24.20
2282;DHT22;27486;48.77806476;9.16920056;2022-08-30T14:43:54;40.80;23.20
2282;DHT22;27486;48.77806476;9.16920056;2022-08-30T14:46:39;40.30;22.80
2282;DHT22;27486;48.77806476;9.16920056;2022-08-30T14:49:23;39.40;23.20
2282;DHT22;27486;48.77806476;9.16920056;2022-08-30T14:52:08;38.70;23.80
2282;DHT22;27486;48.77806476;9.16920056;2022-08-30T14:54:52;38.10;25.60
2282;DHT22;27486;48.77806476;9.16920056;2022-08-30T14:57:36;38.60;25.80
2282;DHT22;27486;48.77806476;9.16920056;2022-08-30T15:00:21;38.90;25.50
2282;DHT22;27486;48.77806476;9.16920056;2022-08-30T15:03:06;38.40;25.50
2282;DHT22;27486;48.77806476;9.16920056;2022-08-30T15:05:52;38.30;25.70
2282;DHT22;27486;48.77806476;9.16920056;2022-08-30T15:08:36;37.80;26.00
2282;DHT22;27486;48.77806476;9.16920056;2022-08-30T15:11:22;37.40;26.50
2282;DHT22;27486;48.77806476;9.16920056;2022-08-30T15:14:09;37.00;26.50
2282;DHT22;27486;48.77806476;9.16920056;2022-08-30T15:16:54;36.20;27.30
2282;DHT22;27486;48.77806476;9.16920056;2022-08-30T15:19:38;35.40;28.40
2282;DHT22;27486;48.77806476;9.16920056;2022-08-30T15:22:22;35.70;28.70
2282;DHT22;27486;48.77806476;9.16920056;2022-08-30T15:25:07;37.30;27.30
2282;DHT22;27486;48.77806476;9.16920056;2022-08-30T15:27:51;38.90;25.80
2282;DHT22;27486;48.77806476;9.16920056;2022-08-30T15:30:35;39.30;25.00
2282;DHT22;27486;48.77806476;9.16920056;2022-08-30T15:33:21;39.10;25.10
2282;DHT22;27486;48.77806476;9.16920056;2022-08-30T15:36:07;39.60;24.80
2282;DHT22;27486;48.77806476;9.16920056;2022-08-30T15:38:52;40.90;23.80
2282;DHT22;27486;48.77806476;9.16920056;2022-08-30T15:41:39;41.80;22.90
2282;DHT22;27486;48.77806476;9.16920056;2022-08-30T15:44:23;42.30;22.20
2282;DHT22;27486;48.77806476;9.16920056;2022-08-30T15:47:08;42.90;21.50
2282;DHT22;27486;48.77806476;9.16920056;2022-08-30T15:49:57;43.60;21.10
2282;DHT22;27486;48.77806476;9.16920056;2022-08-30T15:52:42;44.40;20.40
2282;DHT22;27486;48.77806476;9.16920056;2022-08-30T15:55:26;44.30;20.40
2282;DHT22;27486;48.77806476;9.16920056;2022-08-30T15:58:10;44.50;20.20
2282;DHT22;27486;48.77806476;9.16920056;2022-08-30T16:00:54;44.30;20.00
2282;DHT22;27486;48.77806476;9.16920056;2022-08-30T16:03:38;44.20;20.10
2282;DHT22;27486;48.77806476;9.16920056;2022-08-30T16:06:27;43.50;20.30
2282;DHT22;27486;48.77806476;9.16920056;2022-08-30T16:09:12;42.50;21.10
2282;DHT22;27486;48.77806476;9.16920056;2022-08-30T16:11:57;42.20;21.50
2282;DHT22;27486;48.77806476;9.16920056;2022-08-30T16:14:41;41.50;21.80
2282;DHT22;27486;48.77806476;9.16920056;2022-08-30T16:17:25;41.30;22.10
2282;DHT22;27486;48.77806476;9.16920056;2022-08-30T16:20:09;41.40;22.00
2282;DHT22;27486;48.77806476;9.16920056;2022-08-30T16:22:53;41.20;22.20
2282;DHT22;27486;48.77806476;9.16920056;2022-08-30T16:25:37;40.80;22.50
2282;DHT22;27486;48.77806476;9.16920056;2022-08-30T16:28:21;40.30;23.00
2282;DHT22;27486;48.77806476;9.16920056;2022-08-30T16:31:06;40.00;23.20